Time;durP1;ratioP1;P1;durP2;ratioP2;P2;SDS_P1;SDS_P2;PMS_P1;PMS_P2;Temp;Humidity;BMP_temperature;BMP_pressure;BME280_temperature;BME280_humidity;BME280_pressure;Samples;Min_cycle;Max_cycle;Signal;HPM_P1;HPM_P2
2021/12/29 00:00:43;;;;;;;35.40;15.32;;;;;;;7.69;100.00;99923.47;5255389;28;20054;-68
2021/12/29 00:03:15;;;;;;;41.38;17.25;;;;;;;7.67;100.00;99923.63;5259299;28;20033;-68
2021/12/29 00:05:47;;;;;;;36.50;16.10;;;;;;;7.70;100.00;99918.03;5258192;28;20021;-67
2021/12/29 00:08:18;;;;;;;39.83;17.88;;;;;;;7.65;100.00;99915.78;5256381;28;20592;-68
2021/12/29 00:10:55;;;;;;;36.65;15.65;;;;;;;7.66;100.00;99925.41;5258765;28;20040;-68
2021/12/29 00:13:27;;;;;;;33.92;15.50;;;;;;;7.68;100.00;99949.19;5258265;28;20033;-68
2021/12/29 00:16:00;;;;;;;33.20;15.75;;;;;;;7.68;100.00;99945.69;5261955;28;20035;-68
2021/12/29 00:18:34;;;;;;;30.80;15.27;;;;;;;7.70;100.00;99965.00;5256285;28;20094;-68
2021/12/29 00:21:06;;;;;;;30.63;14.80;;;;;;;7.69;100.00;99976.56;5260618;28;20544;-68
2021/12/29 00:23:37;;;;;;;31.77;15.10;;;;;;;7.68;100.00;99989.00;5256798;28;20024;-68
2021/12/29 00:26:11;;;;;;;33.08;14.93;;;;;;;7.67;100.00;99992.66;5257418;28;20033;-68
2021/12/29 00:28:42;;;;;;;33.70;16.10;;;;;;;7.67;100.00;99992.66;5257809;28;20513;-68
2021/12/29 00:31:13;;;;;;;32.70;14.73;;;;;;;7.65;100.00;99990.09;5257896;28;20198;-68
2021/12/29 00:33:45;;;;;;;33.42;15.43;;;;;;;7.64;100.00;99980.44;5255906;28;20029;-68
2021/12/29 00:36:17;;;;;;;33.83;16.60;;;;;;;7.64;100.00;100000.84;5257929;28;20103;-68
2021/12/29 00:38:48;;;;;;;35.83;17.48;;;;;;;7.64;100.00;99995.53;5253471;28;20079;-69
2021/12/29 00:41:20;;;;;;;39.22;18.45;;;;;;;7.65;100.00;100007.81;5251533;28;20047;-69
2021/12/29 00:43:51;;;;;;;33.78;17.80;;;;;;;7.64;100.00;100014.09;5252213;28;20051;-69
2021/12/29 00:46:23;;;;;;;42.40;18.85;;;;;;;7.65;100.00;100015.78;5254574;28;20036;-69
2021/12/29 00:48:56;;;;;;;46.90;19.05;;;;;;;7.67;100.00;100037.78;5253050;28;20110;-69
2021/12/29 00:51:27;;;;;;;39.83;19.20;;;;;;;7.64;100.00;100033.53;5253400;28;20056;-69
2021/12/29 00:53:59;;;;;;;42.83;18.92;;;;;;;7.64;100.00;100038.00;5249006;28;20584;-68
2021/12/29 00:56:31;;;;;;;44.50;19.40;;;;;;;7.65;100.00;100045.00;5253941;28;20360;-69
2021/12/29 00:59:02;;;;;;;42.42;19.48;;;;;;;7.62;100.00;100046.09;5250093;28;20040;-69
2021/12/29 01:01:33;;;;;;;47.53;21.15;;;;;;;7.62;100.00;100040.78;5254626;28;20089;-68
2021/12/29 01:04:06;;;;;;;48.08;21.58;;;;;;;7.63;100.00;100055.75;5260733;28;20037;-68
2021/12/29 01:06:37;;;;;;;50.40;22.83;;;;;;;7.61;100.00;100060.34;5259420;28;20107;-68
2021/12/29 01:09:08;;;;;;;48.83;22.20;;;;;;;7.64;100.00;100067.22;5260807;28;20149;-68
2021/12/29 01:11:40;;;;;;;51.92;22.77;;;;;;;7.61;100.00;100068.31;5260488;28;20083;-69
2021/12/29 01:14:11;;;;;;;48.55;22.73;;;;;;;7.59;100.00;100062.25;5260767;28;20029;-68
2021/12/29 01:16:45;;;;;;;53.45;23.30;;;;;;;7.61;100.00;100083.34;5265867;28;20531;-68
2021/12/29 01:19:26;;;;;;;51.35;22.85;;;;;;;7.61;100.00;100083.34;5260344;28;20459;-68
2021/12/29 01:22:00;;;;;;;48.28;23.02;;;;;;;7.61;100.00;100092.19;5263495;28;20063;-68
2021/12/29 01:24:31;;;;;;;;;;;;;;;7.61;100.00;100094.84;5266840;28;20490;-68
2021/12/29 01:27:03;;;;;;;52.47;22.27;;;;;;;7.61;100.00;100099.28;5267344;28;20011;-68
2021/12/29 01:29:34;;;;;;;50.92;23.73;;;;;;;7.59;100.00;100112.72;5260670;28;20036;-68
2021/12/29 01:32:06;;;;;;;52.10;22.45;;;;;;;7.60;100.00;100105.56;5255606;28;20039;-68
2021/12/29 01:34:37;;;;;;;50.60;22.80;;;;;;;7.60;100.00;100121.50;5259645;28;20188;-68
2021/12/29 01:37:10;;;;;;;51.10;24.27;;;;;;;7.59;100.00;100131.28;5257177;28;20037;-69
2021/12/29 01:39:41;;;;;;;51.00;22.80;;;;;;;7.60;100.00;100140.09;5259437;28;20063;-68
2021/12/29 01:42:12;;;;;;;52.17;22.83;;;;;;;7.60;100.00;100150.72;5257051;28;20151;-68
2021/12/29 01:44:43;;;;;;;47.35;22.75;;;;;;;7.60;100.00;100163.97;5255947;28;20066;-68
2021/12/29 01:47:29;;;;;;;46.85;21.83;;;;;;;7.61;100.00;100155.03;5254061;28;21480;-68
2021/12/29 01:50:01;;;;;;;42.90;20.77;;;;;;;7.63;100.00;100146.03;5256026;28;20032;-68
2021/12/29 01:52:37;;;;;;;44.95;21.63;;;;;;;7.61;100.00;100152.38;5255471;28;20020;-68
2021/12/29 01:55:13;;;;;;;44.08;21.33;;;;;;;7.59;100.00;100163.16;5253662;28;20330;-68
2021/12/29 01:57:45;;;;;;;46.72;22.27;;;;;;;7.59;100.00;100178.22;5255751;28;20445;-68
2021/12/29 02:00:19;;;;;;;48.13;21.63;;;;;;;7.59;100.00;100170.25;5251262;28;20033;-68
2021/12/29 02:02:51;;;;;;;52.42;22.52;;;;;;;7.60;100.00;100183.41;5256120;28;20478;-68
2021/12/29 02:05:22;;;;;;;44.92;22.27;;;;;;;7.59;100.00;100186.16;5258390;28;20033;-68
2021/12/29 02:07:54;;;;;;;43.67;21.80;;;;;;;7.59;100.00;100183.50;5257634;28;20596;-68
2021/12/29 02:10:25;;;;;;;39.88;21.45;;;;;;;7.57;100.00;100178.31;5259948;28;20045;-68
2021/12/29 02:12:58;;;;;;;47.90;22.27;;;;;;;7.57;100.00;100185.44;5265355;28;20029;-67
2021/12/29 02:15:30;;;;;;;43.97;21.42;;;;;;;7.58;100.00;100189.81;5260830;28;20629;-68
2021/12/29 02:18:01;;;;;;;45.35;23.27;;;;;;;7.58;100.00;100197.75;5262220;28;20028;-68
2021/12/29 02:20:32;;;;;;;51.42;23.20;;;;;;;7.58;100.00;100198.59;5259781;28;20037;-67
2021/12/29 02:23:13;;;;;;;48.42;23.33;;;;;;;7.57;100.00;100202.22;5256634;28;20033;-68
2021/12/29 02:25:53;;;;;;;54.38;23.67;;;;;;;7.57;100.00;100206.69;5260713;28;20033;-68
2021/12/29 02:28:30;;;;;;;53.45;24.35;;;;;;;7.56;100.00;100202.34;5268078;28;20032;-68
2021/12/29 02:31:03;;;;;;;51.30;24.65;;;;;;;7.55;100.00;100201.47;5264628;28;20391;-68
2021/12/29 02:33:35;;;;;;;50.40;23.92;;;;;;;7.51;100.00;100192.06;5264311;28;20039;-68
2021/12/29 02:36:07;;;;;;;62.38;25.83;;;;;;;7.54;100.00;100201.63;5263485;28;20698;-68
2021/12/29 02:38:46;;;;;;;56.25;25.60;;;;;;;7.52;100.00;100204.38;5259609;28;20033;-67
2021/12/29 02:41:19;;;;;;;54.17;25.35;;;;;;;7.51;100.00;100215.94;5259991;28;20028;-68
2021/12/29 02:43:59;;;;;;;54.67;25.00;;;;;;;7.51;100.00;100207.97;5256513;28;20056;-68
2021/12/29 02:46:32;;;;;;;58.60;24.40;;;;;;;7.50;100.00;100208.94;5257220;28;20881;-68
2021/12/29 02:49:04;;;;;;;49.80;24.70;;;;;;;7.49;100.00;100209.91;5259162;28;20035;-68
2021/12/29 02:51:35;;;;;;;51.65;24.30;;;;;;;7.49;100.00;100212.56;5257228;28;20475;-69
2021/12/29 02:54:07;;;;;;;52.17;23.40;;;;;;;7.49;100.00;100196.63;5256924;28;20021;-68
2021/12/29 02:56:38;;;;;;;51.05;22.83;;;;;;;7.47;100.00;100201.22;5254237;28;20044;-68
2021/12/29 02:59:09;;;;;;;56.42;23.80;;;;;;;7.48;100.00;100208.22;5254970;28;20572;-68
2021/12/29 03:01:41;;;;;;;50.90;24.23;;;;;;;7.46;100.00;100220.75;5256023;28;20032;-68
2021/12/29 03:04:13;;;;;;;53.13;23.30;;;;;;;7.44;100.00;100226.19;5265125;28;20128;-68
2021/12/29 03:06:44;;;;;;;54.85;24.30;;;;;;;7.44;100.00;100225.31;5263828;28;20562;-68
2021/12/29 03:09:17;;;;;;;50.67;22.67;;;;;;;7.46;100.00;100226.91;5263852;28;20402;-69
2021/12/29 03:11:48;;;;;;;49.78;23.92;;;;;;;7.43;100.00;100240.41;5265523;28;20565;-68
2021/12/29 03:14:20;;;;;;;49.28;22.95;;;;;;;7.44;100.00;100247.41;5271566;28;20108;-68
2021/12/29 03:16:52;;;;;;;59.30;24.58;;;;;;;7.42;100.00;100254.63;5259604;28;20485;-68
2021/12/29 03:19:23;;;;;;;54.15;24.52;;;;;;;7.45;100.00;100262.34;5277991;28;20120;-68
2021/12/29 03:21:54;;;;;;;55.33;24.52;;;;;;;7.44;100.00;100259.81;5266983;28;20028;-69
2021/12/29 03:24:25;;;;;;;61.15;26.55;;;;;;;7.42;100.00;100261.72;5261896;28;20043;-69
2021/12/29 03:26:57;;;;;;;58.15;25.52;;;;;;;7.43;100.00;100269.59;5265512;28;20064;-68
2021/12/29 03:29:28;;;;;;;54.38;25.50;;;;;;;7.42;100.00;100275.00;5265495;28;20497;-68
2021/12/29 03:32:06;;;;;;;55.88;24.98;;;;;;;7.42;100.00;100277.66;5265755;28;20029;-68
2021/12/29 03:34:37;;;;;;;56.78;24.83;;;;;;;7.42;100.00;100278.53;5275002;28;20040;-68
2021/12/29 03:37:08;;;;;;;55.22;24.73;;;;;;;7.42;100.00;100286.50;5269565;28;20032;-68
2021/12/29 03:39:40;;;;;;;51.25;23.92;;;;;;;7.41;100.00;100286.59;5260243;28;20492;-68
2021/12/29 03:42:11;;;;;;;55.55;23.60;;;;;;;7.39;100.00;100285.84;5265409;28;20025;-68
2021/12/29 03:44:42;;;;;;;59.88;24.45;;;;;;;7.40;100.00;100295.50;5261858;28;20537;-68
2021/12/29 03:47:13;;;;;;;53.15;24.58;;;;;;;7.39;100.00;100292.00;5266846;28;20446;-68
2021/12/29 03:49:45;;;;;;;63.70;25.52;;;;;;;7.35;100.00;100293.19;5264659;28;20090;-69
2021/12/29 03:52:16;;;;;;;59.08;23.70;;;;;;;7.41;100.00;100305.16;5263379;28;20031;-68
2021/12/29 03:54:47;;;;;;;56.10;24.20;;;;;;;7.39;100.00;100304.44;5256501;28;20032;-68
2021/12/29 03:57:18;;;;;;;55.08;24.52;;;;;;;7.37;100.00;100315.16;5260529;28;20059;-69
2021/12/29 03:59:50;;;;;;;57.42;23.80;;;;;;;7.36;100.00;100323.22;5263260;28;20075;-69
2021/12/29 04:02:21;;;;;;;53.75;24.05;;;;;;;7.37;100.00;100320.47;5262777;28;20031;-69
2021/12/29 04:04:53;;;;;;;54.67;23.75;;;;;;;7.38;100.00;100321.31;5269064;28;20036;-68
2021/12/29 04:07:24;;;;;;;51.08;23.65;;;;;;;7.36;100.00;100326.72;5268255;28;20036;-68
2021/12/29 04:09:55;;;;;;;54.03;24.30;;;;;;;7.37;100.00;100323.13;5271460;28;20533;-69
2021/12/29 04:12:27;;;;;;;54.75;24.25;;;;;;;7.35;100.00;100317.06;5265489;28;20036;-69
2021/12/29 04:14:58;;;;;;;58.15;25.65;;;;;;;7.37;100.00;100314.31;5267436;28;20697;-69
2021/12/29 04:17:36;;;;;;;52.95;25.10;;;;;;;7.36;100.00;100315.25;5263744;28;20032;-69
2021/12/29 04:23:04;;;;;;;60.83;24.77;;;;;;;7.34;100.00;100325.97;5262697;28;20092;-69
2021/12/29 04:25:38;;;;;;;52.78;23.80;;;;;;;7.39;100.00;100339.78;5269573;28;20137;-69
2021/12/29 04:28:15;;;;;;;56.15;24.13;;;;;;;7.36;100.00;100331.19;5266603;28;20086;-69
2021/12/29 04:30:54;;;;;;;53.88;23.90;;;;;;;7.36;100.00;100339.97;5268201;28;20112;-69
2021/12/29 04:33:28;;;;;;;61.83;24.15;;;;;;;7.33;100.00;100347.34;5262104;28;20043;-68
2021/12/29 04:36:00;;;;;;;55.33;23.55;;;;;;;7.34;100.00;100357.81;5259008;28;20394;-68
2021/12/29 04:38:31;;;;;;;52.70;23.30;;;;;;;7.34;100.00;100357.81;5269407;28;20040;-68
2021/12/29 04:41:03;;;;;;;57.25;24.35;;;;;;;7.33;100.00;100364.09;5257422;28;20033;-69
2021/12/29 04:43:34;;;;;;;51.05;22.80;;;;;;;7.35;100.00;100370.16;5267169;28;20024;-68
2021/12/29 04:46:05;;;;;;;50.97;23.30;;;;;;;7.32;100.00;100370.34;5260596;28;20101;-69
2021/12/29 04:48:38;;;;;;;53.13;22.17;;;;;;;7.36;100.00;100376.31;5276046;28;20035;-69
2021/12/29 04:51:15;;;;;;;51.60;22.98;;;;;;;7.34;100.00;100372.91;5269815;28;21714;-69
2021/12/29 04:53:46;;;;;;;52.28;23.40;;;;;;;7.32;100.00;100382.78;5260181;28;20028;-69
2021/12/29 04:56:17;;;;;;;53.80;23.88;;;;;;;7.33;100.00;100392.47;5258746;28;20126;-69
2021/12/29 04:58:49;;;;;;;48.08;22.23;;;;;;;7.32;100.00;100394.25;5264818;28;20043;-69
2021/12/29 05:01:20;;;;;;;49.10;22.75;;;;;;;7.30;100.00;100396.16;5257161;28;20032;-69
2021/12/29 05:03:53;;;;;;;51.25;23.55;;;;;;;7.31;100.00;100397.88;5259083;28;20886;-69
2021/12/29 05:09:14;;;;;;;47.22;22.02;;;;;;;7.31;100.00;100394.38;5279750;28;20039;-68
2021/12/29 05:11:46;;;;;;;55.55;23.25;;;;;;;7.31;100.00;100391.72;5269113;28;20020;-69
2021/12/29 05:14:17;;;;;;;52.40;23.30;;;;;;;7.30;100.00;100392.66;5259309;28;20541;-70
2021/12/29 05:16:49;;;;;;;57.17;24.40;;;;;;;7.28;100.00;100387.44;5255944;28;20067;-69
2021/12/29 05:19:20;;;;;;;52.80;23.00;;;;;;;7.27;100.00;100388.44;5255521;28;20037;-68
2021/12/29 05:21:51;;;;;;;51.63;23.20;;;;;;;7.26;100.00;100390.22;5261816;28;20120;-69
2021/12/29 05:24:23;;;;;;;51.67;23.15;;;;;;;7.27;100.00;100393.72;5261713;28;20033;-69
2021/12/29 05:26:55;;;;;;;53.05;23.20;;;;;;;7.25;100.00;100393.00;5262538;28;20444;-68
2021/12/29 05:29:26;;;;;;;56.08;23.23;;;;;;;7.26;100.00;100394.69;5269989;28;20120;-69
2021/12/29 05:31:57;;;;;;;50.83;22.77;;;;;;;7.23;100.00;100402.88;5268025;28;20024;-69
2021/12/29 05:34:29;;;;;;;50.95;22.85;;;;;;;7.25;100.00;100404.44;5261413;28;20394;-69
2021/12/29 05:37:00;;;;;;;48.35;21.70;;;;;;;7.21;100.00;100408.28;5265071;28;20040;-69
2021/12/29 05:39:31;;;;;;;49.17;22.10;;;;;;;7.21;100.00;100410.06;5257394;28;20071;-69
2021/12/29 05:42:03;;;;;;;51.58;23.13;;;;;;;7.20;100.00;100409.22;5262873;28;20068;-69
2021/12/29 05:44:34;;;;;;;50.70;22.25;;;;;;;7.19;100.00;100415.50;5260968;28;20082;-69
2021/12/29 05:47:06;;;;;;;46.50;21.80;;;;;;;7.19;100.00;100419.94;5268015;28;20474;-69
2021/12/29 05:49:37;;;;;;;59.03;23.70;;;;;;;7.16;100.00;100415.69;5264514;28;20028;-69
2021/12/29 05:52:10;;;;;;;52.55;21.05;;;;;;;7.25;100.00;100419.53;5263648;28;20039;-69
2021/12/29 05:54:42;;;;;;;56.47;23.45;;;;;;;7.18;100.00;100416.44;5260527;28;20021;-69
2021/12/29 05:57:13;;;;;;;46.92;21.00;;;;;;;7.17;100.00;100409.44;5258238;28;20454;-69
2021/12/29 05:59:44;;;;;;;47.15;20.60;;;;;;;7.24;100.00;100416.00;5261777;28;20324;-69
2021/12/29 06:02:16;;;;;;;47.45;21.63;;;;;;;7.19;100.00;100419.94;5262084;28;20032;-69
2021/12/29 06:04:48;;;;;;;38.22;20.10;;;;;;;7.19;100.00;100417.28;5261503;28;20111;-69
2021/12/29 06:07:19;;;;;;;42.97;20.42;;;;;;;7.17;100.00;100417.41;5267674;28;20476;-69
2021/12/29 06:09:50;;;;;;;48.13;20.67;;;;;;;7.16;100.00;100428.13;5275256;28;20057;-69
2021/12/29 06:12:21;;;;;;;45.58;20.98;;;;;;;7.16;100.00;100431.63;5258469;28;20829;-69
2021/12/29 06:14:53;;;;;;;49.10;20.15;;;;;;;7.18;100.00;100437.66;5262548;28;20024;-69
2021/12/29 06:17:24;;;;;;;48.25;20.17;;;;;;;7.14;100.00;100433.53;5268237;28;20172;-69
2021/12/29 06:19:56;;;;;;;46.83;20.63;;;;;;;7.14;100.00;100445.94;5257694;28;20046;-69
2021/12/29 06:22:27;;;;;;;44.97;19.42;;;;;;;7.13;100.00;100449.53;5259724;28;20085;-69
2021/12/29 06:24:59;;;;;;;42.75;20.23;;;;;;;7.13;100.00;100449.53;5259715;28;20037;-69
2021/12/29 06:27:31;;;;;;;46.65;19.75;;;;;;;7.12;100.00;100455.81;5264512;28;20134;-69
2021/12/29 06:30:05;;;;;;;42.17;19.25;;;;;;;7.14;100.00;100448.59;5260228;28;20094;-69
2021/12/29 06:32:38;;;;;;;42.58;19.50;;;;;;;7.13;100.00;100458.34;5255821;28;20024;-69
2021/12/29 06:35:11;;;;;;;42.63;19.08;;;;;;;7.14;100.00;100456.56;5266120;28;21661;-69
2021/12/29 06:37:43;;;;;;;41.63;19.63;;;;;;;7.12;100.00;100458.47;5265754;28;20027;-69
2021/12/29 06:40:15;;;;;;;53.35;20.20;;;;;;;7.11;100.00;100462.91;5264522;28;20633;-69
2021/12/29 06:42:46;;;;;;;34.15;18.80;;;;;;;7.12;100.00;100467.28;5259149;28;20055;-69
2021/12/29 06:45:17;;;;;;;46.30;19.70;;;;;;;7.10;100.00;100463.03;5258245;28;20025;-69
2021/12/29 06:47:48;;;;;;;43.03;19.70;;;;;;;7.13;100.00;100470.75;5257230;28;20052;-69
2021/12/29 06:50:20;;;;;;;43.40;20.08;;;;;;;7.12;100.00;100474.38;5256798;28;20052;-69
2021/12/29 06:52:51;;;;;;;41.72;18.73;;;;;;;7.12;100.00;100472.56;5254558;28;20477;-69
2021/12/29 06:55:22;;;;;;;34.17;18.08;;;;;;;7.16;100.00;100473.22;5256637;28;20035;-69
2021/12/29 06:57:54;;;;;;;42.85;18.88;;;;;;;7.12;100.00;100469.09;5259975;28;20087;-69
2021/12/29 07:00:25;;;;;;;33.22;17.58;;;;;;;7.17;100.00;100469.59;5260834;28;20211;-69
2021/12/29 07:02:57;;;;;;;40.22;19.85;;;;;;;7.13;100.00;100465.47;5253641;28;20488;-69
2021/12/29 07:05:29;;;;;;;36.20;18.70;;;;;;;7.05;100.00;100463.31;5259742;28;20493;-69
2021/12/29 07:08:00;;;;;;;38.60;17.92;;;;;;;7.09;100.00;100478.09;5261329;28;20044;-69
2021/12/29 07:10:31;;;;;;;32.97;17.70;;;;;;;7.16;100.00;100474.06;5261396;28;20052;-69
2021/12/29 07:13:03;;;;;;;40.15;18.27;;;;;;;7.11;100.00;100489.44;5263373;28;20028;-69
2021/12/29 07:15:35;;;;;;;35.58;17.48;;;;;;;7.19;100.00;100487.13;5260838;28;20056;-69
2021/12/29 07:18:06;;;;;;;44.40;19.80;;;;;;;7.13;100.00;100497.28;5266134;28;20047;-69
2021/12/29 07:20:38;;;;;;;33.40;18.63;;;;;;;7.16;100.00;100505.06;5262904;28;20500;-69
2021/12/29 07:23:11;;;;;;;46.45;19.65;;;;;;;7.11;100.00;100500.03;5260740;28;20463;-69
2021/12/29 07:25:42;;;;;;;37.65;18.10;;;;;;;7.13;100.00;100505.25;5263568;28;20047;-69
2021/12/29 07:28:14;;;;;;;38.17;18.20;;;;;;;7.15;100.00;100511.31;5258432;28;20037;-69
2021/12/29 07:30:45;;;;;;;34.30;18.35;;;;;;;7.20;100.00;100514.50;5261733;28;20033;-69
2021/12/29 07:33:16;;;;;;;40.38;18.35;;;;;;;7.11;100.00;100515.97;5262828;28;20071;-69
2021/12/29 07:35:48;;;;;;;36.03;18.33;;;;;;;7.12;100.00;100516.84;5262961;28;20039;-69
2021/12/29 07:38:20;;;;;;;35.38;18.17;;;;;;;7.09;100.00;100530.28;5261172;28;20032;-69
2021/12/29 07:40:51;;;;;;;35.00;17.15;;;;;;;7.10;100.00;100535.50;5261212;28;21543;-69
2021/12/29 07:43:23;;;;;;;35.88;16.85;;;;;;;7.06;100.00;100529.56;5258936;28;20485;-69
2021/12/29 07:45:55;;;;;;;38.20;17.73;;;;;;;7.10;100.00;100537.31;5256480;28;20035;-69
2021/12/29 07:48:29;;;;;;;35.33;17.63;;;;;;;7.09;100.00;100536.44;5262391;28;20025;-70
2021/12/29 07:51:03;;;;;;;31.42;16.88;;;;;;;7.14;100.00;100520.22;5262581;28;20413;-69
2021/12/29 07:53:37;;;;;;;36.53;17.00;;;;;;;7.15;100.00;100521.91;5259390;28;20392;-69
2021/12/29 07:56:09;;;;;;;34.58;17.80;;;;;;;7.12;100.00;100530.09;5264287;28;20470;-69
2021/12/29 07:58:40;;;;;;;36.83;17.20;;;;;;;7.09;100.00;100517.88;5254074;28;20035;-70
2021/12/29 08:01:11;;;;;;;33.15;16.75;;;;;;;7.10;100.00;100524.88;5255672;28;20080;-70
2021/12/29 08:03:43;;;;;;;35.33;17.52;;;;;;;7.11;100.00;100529.22;5256974;28;20601;-69
2021/12/29 08:06:18;;;;;;;35.78;17.17;;;;;;;7.15;100.00;100533.41;5257352;28;20029;-69
2021/12/29 08:08:50;;;;;;;36.45;17.85;;;;;;;7.13;100.00;100515.88;5260252;28;20076;-69
2021/12/29 08:11:21;;;;;;;32.83;16.50;;;;;;;7.18;100.00;100527.03;5252163;28;20627;-69
2021/12/29 08:13:53;;;;;;;31.63;17.00;;;;;;;7.16;100.00;100536.91;5254590;28;20044;-69
2021/12/29 08:16:25;;;;;;;36.38;16.42;;;;;;;7.13;100.00;100532.63;5255487;28;20036;-69
2021/12/29 08:18:57;;;;;;;36.40;17.13;;;;;;;7.12;100.00;100527.44;5255396;28;20119;-69
2021/12/29 08:21:28;;;;;;;32.63;17.13;;;;;;;7.12;100.00;100538.06;5263226;28;20066;-69
2021/12/29 08:23:59;;;;;;;32.47;16.92;;;;;;;7.14;100.00;100529.03;5271756;28;20036;-69
2021/12/29 08:26:31;;;;;;;35.55;17.75;;;;;;;7.13;100.00;100529.97;5267694;28;20040;-69
2021/12/29 08:29:02;;;;;;;32.83;17.60;;;;;;;7.16;100.00;100540.38;5259438;28;20055;-69
2021/12/29 08:31:33;;;;;;;35.55;17.73;;;;;;;7.15;100.00;100537.84;5259285;28;20673;-69
2021/12/29 08:34:05;;;;;;;29.65;16.52;;;;;;;7.23;100.00;100549.66;5260582;28;20024;-70
2021/12/29 08:36:36;;;;;;;32.63;17.70;;;;;;;7.21;100.00;100548.91;5271582;28;20588;-69
2021/12/29 08:39:08;;;;;;;41.95;19.48;;;;;;;7.18;100.00;100542.94;5260643;28;20036;-69
2021/12/29 08:41:39;;;;;;;33.90;17.88;;;;;;;7.28;100.00;100541.38;5260159;28;20058;-69
2021/12/29 08:44:10;;;;;;;34.47;18.00;;;;;;;7.23;100.00;100531.06;5259204;28;20032;-69
2021/12/29 08:46:42;;;;;;;34.10;18.27;;;;;;;7.25;100.00;100533.63;5265561;28;20108;-69
2021/12/29 08:49:14;;;;;;;39.45;20.45;;;;;;;7.27;100.00;100537.03;5262526;28;20119;-70
2021/12/29 08:51:45;;;;;;;35.72;19.73;;;;;;;7.31;100.00;100537.69;5254826;28;20029;-69
2021/12/29 08:54:16;;;;;;;38.03;20.52;;;;;;;7.28;100.00;100537.88;5259947;28;20165;-69
2021/12/29 08:56:48;;;;;;;43.50;21.08;;;;;;;7.27;100.00;100531.72;5267860;28;20055;-69
2021/12/29 08:59:19;;;;;;;40.47;21.13;;;;;;;7.31;100.00;100537.69;5264511;28;20394;-70
2021/12/29 09:01:50;;;;;;;39.45;20.20;;;;;;;7.33;100.00;100547.22;5261274;28;20070;-69
2021/12/29 09:04:22;;;;;;;40.08;21.17;;;;;;;7.27;100.00;100542.34;5254504;28;20068;-69
2021/12/29 09:06:53;;;;;;;42.75;21.05;;;;;;;7.28;100.00;100544.00;5258719;28;20764;-69
2021/12/29 09:09:24;;;;;;;36.53;20.40;;;;;;;7.28;100.00;100532.56;5263427;28;20074;-70
2021/12/29 09:11:58;;;;;;;43.35;20.58;;;;;;;7.39;100.00;100536.19;5264281;28;20035;-69
2021/12/29 09:14:29;;;;;;;35.22;20.27;;;;;;;7.42;100.00;100540.41;5267865;28;20747;-70
2021/12/29 09:17:01;;;;;;;38.30;20.85;;;;;;;7.45;100.00;100540.22;5262527;28;20045;-69
2021/12/29 09:19:38;;;;;;;34.88;19.55;;;;;;;7.37;100.00;100534.59;5255999;28;20070;-70
2021/12/29 09:22:11;;;;;;;32.28;19.38;;;;;;;7.32;100.00;100534.88;5264811;28;20039;-69
2021/12/29 09:24:45;;;;;;;35.25;19.90;;;;;;;7.39;100.00;100533.53;5265925;28;20045;-69
2021/12/29 09:27:17;;;;;;;39.17;19.48;;;;;;;7.38;100.00;100533.63;5268386;28;20034;-69
2021/12/29 09:29:48;;;;;;;35.42;19.05;;;;;;;7.53;100.00;100521.13;5268426;28;20025;-69
2021/12/29 09:32:19;;;;;;;36.10;19.20;;;;;;;7.51;100.00;100521.22;5264011;28;20154;-70
2021/12/29 09:34:51;;;;;;;37.55;19.27;;;;;;;7.46;100.00;100528.66;5264484;28;20414;-70
2021/12/29 09:37:22;;;;;;;34.25;19.17;;;;;;;7.51;100.00;100531.00;5265689;28;20029;-70
2021/12/29 09:39:53;;;;;;;36.65;18.80;;;;;;;7.50;100.00;100535.47;5259704;28;20040;-70
2021/12/29 09:42:25;;;;;;;32.63;18.00;;;;;;;7.57;100.00;100535.88;5258041;28;20074;-69
2021/12/29 09:44:56;;;;;;;36.53;19.38;;;;;;;7.54;100.00;100538.75;5255700;28;20036;-70
2021/12/29 09:47:28;;;;;;;30.48;17.95;;;;;;;7.56;100.00;100532.38;5262929;28;20063;-70
2021/12/29 09:50:00;;;;;;;29.88;17.23;;;;;;;7.50;100.00;100531.94;5257993;28;20075;-69
2021/12/29 09:52:33;;;;;;;27.73;16.20;;;;;;;7.46;100.00;100520.69;5255597;28;20445;-69
2021/12/29 09:55:09;;;;;;;32.33;16.55;;;;;;;7.46;100.00;100510.09;5256088;28;20090;-69
2021/12/29 09:57:44;;;;;;;30.95;15.50;;;;;;;7.39;100.00;100514.94;5264425;28;20025;-70
2021/12/29 10:00:27;;;;;;;29.65;15.63;;;;;;;7.39;100.00;100520.25;5257551;28;20081;-70
2021/12/29 10:03:02;;;;;;;29.80;15.55;;;;;;;7.37;100.00;100527.47;5253625;28;20029;-70
2021/12/29 10:05:34;;;;;;;30.98;15.70;;;;;;;7.37;100.00;100514.19;5246235;28;20457;-70
2021/12/29 10:08:25;;;;;;;29.17;15.18;;;;;;;7.36;100.00;100525.75;5255421;28;20757;-72
2021/12/29 10:11:00;;;;;;;26.60;13.98;;;;;;;7.32;100.00;100528.75;5254329;28;20573;-70
2021/12/29 10:13:34;;;;;;;26.23;14.63;;;;;;;7.35;100.00;100523.25;5250776;28;20546;-70
2021/12/29 10:16:09;;;;;;;25.80;14.13;;;;;;;7.42;100.00;100524.50;5254002;28;20036;-70
2021/12/29 10:18:43;;;;;;;31.63;14.73;;;;;;;7.46;100.00;100524.19;5253176;28;20085;-70
2021/12/29 10:21:18;;;;;;;30.42;15.10;;;;;;;7.54;100.00;100520.16;5253065;28;20032;-70
2021/12/29 10:23:52;;;;;;;27.63;13.88;;;;;;;7.60;100.00;100523.25;5253529;28;20041;-70
2021/12/29 10:26:26;;;;;;;27.63;14.70;;;;;;;7.68;100.00;100509.44;5257327;28;20087;-70
2021/12/29 10:29:02;;;;;;;29.27;13.45;;;;;;;7.66;100.00;100501.56;5254558;28;20024;-70
2021/12/29 10:31:40;;;;;;;25.77;13.13;;;;;;;7.72;100.00;100494.97;5259758;28;20024;-70
2021/12/29 10:34:18;;;;;;;24.42;12.93;;;;;;;7.77;100.00;100490.19;5265627;28;20135;-70
2021/12/29 10:37:00;;;;;;;23.40;11.68;;;;;;;7.75;100.00;100481.50;5264289;28;20089;-70
2021/12/29 10:39:35;;;;;;;20.60;11.02;;;;;;;7.82;100.00;100487.19;5261746;28;20162;-71
2021/12/29 10:42:10;;;;;;;21.98;10.98;;;;;;;7.78;100.00;100489.22;5262781;28;20132;-69
2021/12/29 10:44:52;;;;;;;22.17;11.10;;;;;;;7.82;100.00;100492.50;5261826;28;20032;-70
2021/12/29 10:47:29;;;;;;;25.42;12.10;;;;;;;7.91;100.00;100483.91;5257037;28;20021;-71
2021/12/29 10:50:05;;;;;;;22.50;10.88;;;;;;;7.93;100.00;100487.28;5259909;28;20052;-70
2021/12/29 10:52:42;;;;;;;18.48;9.63;;;;;;;7.99;100.00;100486.84;5269077;28;20017;-70
2021/12/29 10:55:20;;;;;;;22.23;9.38;;;;;;;7.95;100.00;100485.38;5263289;28;20028;-67
2021/12/29 10:58:06;;;;;;;23.42;9.82;;;;;;;8.04;100.00;100482.06;5260710;28;20068;-70
2021/12/29 11:00:40;;;;;;;26.55;9.52;;;;;;;8.04;100.00;100487.38;5261090;28;20473;-70
2021/12/29 11:03:20;;;;;;;19.85;9.30;;;;;;;8.02;100.00;100507.91;5264261;28;20062;-70
2021/12/29 11:05:58;;;;;;;20.55;9.15;;;;;;;8.03;100.00;100516.72;5262622;28;20045;-70
2021/12/29 11:08:33;;;;;;;18.17;8.30;;;;;;;8.00;100.00;100512.47;5268121;28;20056;-70
2021/12/29 11:11:05;;;;;;;;;;;;;;;8.12;100.00;100509.91;5259500;28;20059;-70
2021/12/29 11:13:38;;;;;;;18.75;7.93;;;;;;;8.05;100.00;100507.69;5260857;28;20256;-70
2021/12/29 11:16:09;;;;;;;17.17;8.07;;;;;;;8.09;100.00;100495.00;5263799;28;20032;-70
2021/12/29 11:18:44;;;;;;;19.80;8.25;;;;;;;8.07;100.00;100507.56;5265114;28;20382;-70
2021/12/29 11:21:29;;;;;;;;;;;;;;;8.16;100.00;100512.22;5265445;28;20227;-72
2021/12/29 11:24:16;;;;;;;17.27;7.18;;;;;;;8.08;100.00;100503.13;5261192;28;19921;-70
2021/12/29 11:26:49;;;;;;;17.17;7.80;;;;;;;8.07;100.00;100486.31;5258356;28;20029;-70
2021/12/29 11:29:22;;;;;;;20.60;7.32;;;;;;;8.05;100.00;100489.09;5268505;28;20023;-69
2021/12/29 11:32:01;;;;;;;18.58;7.95;;;;;;;8.05;100.00;100475.81;5270008;28;20448;-70
2021/12/29 11:34:32;;;;;;;18.92;7.75;;;;;;;8.07;100.00;100461.53;5256646;28;20139;-69
2021/12/29 11:37:11;;;;;;;18.30;7.25;;;;;;;8.02;100.00;100460.06;5266232;28;20035;-69
2021/12/29 11:39:45;;;;;;;19.00;8.02;;;;;;;8.04;100.00;100474.09;5271017;28;20016;-69
2021/12/29 11:42:17;;;;;;;21.63;8.60;;;;;;;8.07;100.00;100464.22;5262340;28;20440;-70